createdAt,value
2023-03-04T00:00:59.047Z,21.90
2023-03-04T00:03:27.737Z,23.10
2023-03-04T00:05:56.145Z,22.40
2023-03-04T00:08:24.258Z,21.40
2023-03-04T00:10:52.638Z,20.50
2023-03-04T00:13:22.141Z,20.80
2023-03-04T00:15:50.813Z,21.00
2023-03-04T00:18:21.353Z,21.10
2023-03-04T00:20:52.368Z,21.00
2023-03-04T00:23:20.636Z,19.80
2023-03-04T00:25:49.184Z,20.20
2023-03-04T00:28:17.500Z,20.80
2023-03-04T00:30:45.623Z,19.40
2023-03-04T00:33:13.752Z,20.70
2023-03-04T00:35:42.238Z,19.70
2023-03-04T00:38:10.436Z,18.30
2023-03-04T00:40:39.236Z,19.20
2023-03-04T00:43:07.833Z,19.20
2023-03-04T00:45:36.009Z,20.80
2023-03-04T00:48:04.271Z,19.40
2023-03-04T00:50:32.572Z,19.50
2023-03-04T00:53:02.031Z,20.10
2023-03-04T00:55:30.677Z,20.60
2023-03-04T00:57:59.105Z,20.40
2023-03-04T01:00:27.233Z,20.40
2023-03-04T01:02:56.399Z,20.50
2023-03-04T01:05:24.587Z,21.70
2023-03-04T01:07:53.166Z,21.70
2023-03-04T01:10:21.977Z,22.70
2023-03-04T01:12:50.352Z,21.90
2023-03-04T01:15:19.055Z,20.20
2023-03-04T01:17:48.204Z,19.80
2023-03-04T01:20:17.445Z,22.20
2023-03-04T01:22:45.713Z,20.60
2023-03-04T01:25:16.410Z,20.80
2023-03-04T01:27:45.315Z,22.10
2023-03-04T01:30:14.084Z,23.40
2023-03-04T01:32:42.621Z,21.70
2023-03-04T01:35:11.054Z,21.80
2023-03-04T01:37:39.237Z,20.60
2023-03-04T01:40:08.821Z,20.10
2023-03-04T01:42:40.187Z,19.80
2023-03-04T01:45:19.218Z,18.60
2023-03-04T01:47:49.386Z,18.30
2023-03-04T01:50:20.684Z,17.30
2023-03-04T01:52:49.185Z,17.50
2023-03-04T01:55:20.706Z,19.10
2023-03-04T01:57:50.741Z,21.60
2023-03-04T02:00:27.768Z,16.90
2023-03-04T02:03:00.313Z,21.60
2023-03-04T02:05:30.571Z,21.50
2023-03-04T02:08:01.869Z,21.10
2023-03-04T02:10:35.409Z,22.50
2023-03-04T02:13:07.297Z,22.90
2023-03-04T02:15:36.002Z,24.30
2023-03-04T02:18:15.287Z,22.00
2023-03-04T02:20:49.382Z,21.30
2023-03-04T02:23:42.747Z,19.60
2023-03-04T02:26:17.846Z,18.30
2023-03-04T02:28:49.315Z,20.90
2023-03-04T02:31:26.119Z,20.10
2023-03-04T02:33:58.306Z,20.30
2023-03-04T02:36:30.066Z,19.20
2023-03-04T02:39:11.805Z,17.60
2023-03-04T02:41:40.933Z,16.40
2023-03-04T02:44:23.407Z,15.50
2023-03-04T02:46:53.168Z,16.60
2023-03-04T02:49:23.498Z,15.30
2023-03-04T02:51:54.005Z,16.10
2023-03-04T02:54:24.597Z,16.40
2023-03-04T02:56:55.641Z,16.60
2023-03-04T02:59:24.782Z,18.10
2023-03-04T03:01:53.901Z,15.70
2023-03-04T03:04:24.323Z,16.50
2023-03-04T03:06:54.305Z,17.30
2023-03-04T03:09:23.196Z,16.80
2023-03-04T03:11:51.533Z,17.40
2023-03-04T03:14:19.705Z,16.70
2023-03-04T03:16:48.026Z,16.90
2023-03-04T03:19:16.549Z,16.20
2023-03-04T03:21:44.878Z,17.20
2023-03-04T03:24:12.950Z,17.60
2023-03-04T03:26:41.452Z,17.20
2023-03-04T03:29:09.788Z,18.60
2023-03-04T03:31:38.645Z,19.20
2023-03-04T03:34:08.266Z,17.40
2023-03-04T03:36:36.638Z,19.90
2023-03-04T03:39:05.558Z,19.10
2023-03-04T03:41:34.026Z,18.20
2023-03-04T03:44:02.339Z,17.00
2023-03-04T03:46:30.497Z,17.40
2023-03-04T03:48:58.802Z,16.30
2023-03-04T03:51:27.594Z,15.70
2023-03-04T03:53:56.078Z,17.80
2023-03-04T03:56:24.504Z,16.50
2023-03-04T03:58:53.096Z,15.90
2023-03-04T04:01:21.510Z,16.80
2023-03-04T04:03:50.069Z,17.00
2023-03-04T04:06:18.382Z,17.20
2023-03-04T04:08:46.747Z,16.20
2023-03-04T04:11:15.069Z,17.70
2023-03-04T04:13:44.373Z,17.20
2023-03-04T04:16:12.873Z,18.00
2023-03-04T04:18:41.493Z,18.40
2023-03-04T04:21:10.105Z,17.60
2023-03-04T04:23:38.478Z,17.60
2023-03-04T04:26:06.645Z,16.40
2023-03-04T04:28:35.004Z,19.90
2023-03-04T04:31:03.373Z,21.90
2023-03-04T04:33:31.626Z,20.30
2023-03-04T04:36:01.510Z,17.10
2023-03-04T04:38:30.355Z,18.20
2023-03-04T04:40:59.799Z,18.50
2023-03-04T04:43:28.113Z,18.10
2023-03-04T04:45:56.327Z,16.70
2023-03-04T04:48:24.480Z,17.90
2023-03-04T04:50:56.777Z,16.60
2023-03-04T04:53:25.280Z,16.30
2023-03-04T04:55:53.755Z,17.90
2023-03-04T04:58:22.145Z,17.00
2023-03-04T05:00:50.841Z,17.00
2023-03-04T05:03:20.958Z,17.80
2023-03-04T05:05:50.804Z,18.90
2023-03-04T05:08:19.421Z,20.10
2023-03-04T05:10:48.538Z,20.20
2023-03-04T05:13:17.155Z,20.60
2023-03-04T05:15:46.757Z,21.00
2023-03-04T05:18:15.314Z,19.80
2023-03-04T05:20:43.645Z,19.10
2023-03-04T05:23:12.154Z,19.90
2023-03-04T05:25:40.822Z,18.90
2023-03-04T05:28:12.733Z,19.30
2023-03-04T05:30:43.425Z,20.00
2023-03-04T05:33:14.394Z,21.90
2023-03-04T05:35:44.194Z,20.80
2023-03-04T05:38:15.223Z,18.80
2023-03-04T05:40:44.469Z,17.20
2023-03-04T05:43:13.888Z,16.70
2023-03-04T05:45:42.828Z,15.00
2023-03-04T05:48:11.652Z,17.10
2023-03-04T05:50:40.107Z,16.00
2023-03-04T05:53:08.479Z,17.10
2023-03-04T05:55:37.070Z,15.40
2023-03-04T05:58:05.562Z,15.60
2023-03-04T06:00:34.079Z,15.70
2023-03-04T06:03:02.579Z,16.10
2023-03-04T06:05:30.842Z,16.00
2023-03-04T06:07:59.834Z,16.50
2023-03-04T06:10:28.069Z,15.80
2023-03-04T06:12:56.327Z,15.60
2023-03-04T06:15:24.772Z,16.40
2023-03-04T06:17:55.492Z,16.50
2023-03-04T06:20:23.981Z,17.50
2023-03-04T06:22:52.600Z,16.10
2023-03-04T06:25:21.701Z,15.30
2023-03-04T06:27:51.132Z,15.90
2023-03-04T06:30:21.137Z,15.40
2023-03-04T06:32:49.910Z,15.90
2023-03-04T06:35:18.807Z,15.00
2023-03-04T06:37:47.088Z,14.50
2023-03-04T06:40:15.493Z,14.30
2023-03-04T06:42:44.145Z,13.70
2023-03-04T06:45:12.726Z,14.60
2023-03-04T06:47:41.774Z,15.00
2023-03-04T06:50:12.560Z,13.70
2023-03-04T06:52:41.309Z,13.80
2023-03-04T06:55:10.314Z,15.60
2023-03-04T06:57:38.653Z,15.50
2023-03-04T07:00:07.640Z,15.30
2023-03-04T07:02:36.082Z,15.20
2023-03-04T07:05:04.713Z,15.20
2023-03-04T07:07:33.003Z,14.90
2023-03-04T07:10:01.785Z,15.50
2023-03-04T07:12:30.165Z,13.40
2023-03-04T07:14:58.855Z,15.70
2023-03-04T07:17:27.407Z,13.10
2023-03-04T07:19:56.333Z,15.00
2023-03-04T07:22:24.466Z,14.10
2023-03-04T07:24:52.585Z,14.80
2023-03-04T07:27:20.976Z,13.30
2023-03-04T07:29:49.255Z,13.70
2023-03-04T07:32:17.407Z,12.30
2023-03-04T07:34:45.499Z,13.60
2023-03-04T07:37:13.572Z,14.80
2023-03-04T07:39:41.811Z,14.00
2023-03-04T07:42:09.819Z,13.50
2023-03-04T07:44:40.203Z,13.30
2023-03-04T07:47:08.622Z,13.90
2023-03-04T07:49:37.002Z,14.20
2023-03-04T07:52:06.050Z,13.60
2023-03-04T07:54:34.417Z,13.00
2023-03-04T07:57:02.828Z,13.00
2023-03-04T07:59:31.134Z,12.60
2023-03-04T08:01:59.783Z,12.50
2023-03-04T08:04:28.137Z,13.20
2023-03-04T08:06:56.737Z,13.10
2023-03-04T08:09:25.203Z,12.60
2023-03-04T08:11:53.798Z,12.20
2023-03-04T08:14:21.999Z,13.80
2023-03-04T08:16:50.066Z,12.50
2023-03-04T08:19:18.197Z,12.40
2023-03-04T08:21:46.735Z,12.00
2023-03-04T08:24:15.114Z,13.00
2023-03-04T08:26:47.011Z,13.50
2023-03-04T08:29:20.749Z,13.90
2023-03-04T08:31:50.630Z,13.70
2023-03-04T08:34:21.448Z,12.90
2023-03-04T08:36:50.204Z,12.70
2023-03-04T08:39:19.450Z,12.70
2023-03-04T08:41:48.912Z,13.30
2023-03-04T08:44:17.546Z,12.70
2023-03-04T08:46:46.188Z,11.60
2023-03-04T08:49:15.312Z,12.50
2023-03-04T08:51:45.610Z,12.70
2023-03-04T08:54:14.040Z,12.10
2023-03-04T08:56:42.781Z,13.40
2023-03-04T08:59:11.296Z,12.20
2023-03-04T09:01:39.907Z,11.40
2023-03-04T09:04:08.262Z,11.90
2023-03-04T09:06:36.869Z,12.60
2023-03-04T09:09:05.514Z,10.80
2023-03-04T09:11:33.936Z,11.20
2023-03-04T09:14:02.070Z,10.30
2023-03-04T09:16:30.414Z,9.30
2023-03-04T09:19:00.827Z,13.50
2023-03-04T09:21:29.223Z,10.30
2023-03-04T09:23:57.791Z,9.60
2023-03-04T09:26:29.291Z,11.40
2023-03-04T09:29:00.430Z,11.10
2023-03-04T09:31:30.055Z,11.10
2023-03-04T09:33:59.584Z,13.50
2023-03-04T09:36:28.030Z,12.80
2023-03-04T09:39:00.970Z,9.90
2023-03-04T09:41:39.360Z,11.20
2023-03-04T09:44:36.973Z,11.40
2023-03-04T09:47:11.927Z,11.90
2023-03-04T09:49:44.205Z,10.60
2023-03-04T09:52:24.803Z,11.10
2023-03-04T09:55:15.442Z,11.90
2023-03-04T09:57:59.000Z,12.50
2023-03-04T10:00:43.124Z,11.40
2023-03-04T10:03:23.701Z,10.20
2023-03-04T10:06:01.326Z,11.30
2023-03-04T10:08:42.042Z,10.50
2023-03-04T10:11:18.866Z,11.20
2023-03-04T10:14:20.274Z,11.30
2023-03-04T10:16:58.493Z,10.80
2023-03-04T10:19:54.469Z,10.40
2023-03-04T10:22:33.771Z,7.70
2023-03-04T10:25:30.800Z,12.30
2023-03-04T10:28:09.737Z,11.70
2023-03-04T10:30:53.064Z,11.90
2023-03-04T10:33:23.896Z,11.80
2023-03-04T10:36:00.272Z,12.00
2023-03-04T10:38:34.964Z,11.70
2023-03-04T10:41:16.941Z,11.20
2023-03-04T10:43:51.081Z,11.70
2023-03-04T10:46:22.118Z,11.00
2023-03-04T10:48:51.400Z,11.40
2023-03-04T10:51:29.398Z,12.90
2023-03-04T10:54:10.073Z,13.30
2023-03-04T10:56:45.820Z,11.80
2023-03-04T10:59:33.659Z,10.50
2023-03-04T11:02:23.272Z,10.30
2023-03-04T11:05:26.755Z,10.00
2023-03-04T11:07:58.729Z,10.80
2023-03-04T11:10:43.368Z,11.90
2023-03-04T11:13:11.387Z,12.70
2023-03-04T11:16:01.446Z,11.90
2023-03-04T11:18:44.528Z,12.50
2023-03-04T11:21:17.950Z,11.30
2023-03-04T11:23:59.062Z,11.90
2023-03-04T11:26:50.519Z,12.20
2023-03-04T11:29:21.070Z,11.90
2023-03-04T11:31:53.828Z,11.40
2023-03-04T11:34:38.426Z,11.40
2023-03-04T11:37:24.853Z,10.30
2023-03-04T11:39:59.573Z,8.80
2023-03-04T11:42:33.687Z,10.00
2023-03-04T11:45:02.046Z,9.50
2023-03-04T11:47:33.363Z,9.90
2023-03-04T11:50:20.450Z,9.50
2023-03-04T11:52:55.373Z,9.20
2023-03-04T11:55:44.218Z,9.50
2023-03-04T11:58:31.777Z,9.10
2023-03-04T12:01:12.979Z,10.10
2023-03-04T12:04:05.156Z,10.20
2023-03-04T12:07:03.065Z,10.70
2023-03-04T12:09:53.560Z,9.00
2023-03-04T12:12:22.551Z,9.90
2023-03-04T12:15:09.400Z,11.70
2023-03-04T12:17:50.259Z,10.00
2023-03-04T12:20:44.958Z,9.80
2023-03-04T12:23:13.424Z,10.90
2023-03-04T12:25:47.072Z,9.80
2023-03-04T12:28:22.389Z,9.50
2023-03-04T12:31:06.008Z,10.20
2023-03-04T12:33:47.257Z,10.50
2023-03-04T12:36:16.065Z,9.30
2023-03-04T12:39:05.106Z,9.60
2023-03-04T12:41:42.969Z,9.80
2023-03-04T12:44:17.303Z,9.60
2023-03-04T12:47:11.703Z,10.80
2023-03-04T12:49:42.933Z,10.60
2023-03-04T12:52:19.881Z,10.30
2023-03-04T12:54:54.978Z,9.60
2023-03-04T12:57:31.967Z,10.20
2023-03-04T13:00:09.723Z,9.40
2023-03-04T13:03:00.783Z,8.80
2023-03-04T13:05:38.011Z,11.90
2023-03-04T13:08:43.972Z,10.50
2023-03-04T13:11:31.403Z,10.30
2023-03-04T13:14:08.429Z,9.60
2023-03-04T13:16:42.012Z,8.00
2023-03-04T13:19:43.435Z,6.00
2023-03-04T13:22:31.163Z,5.60
2023-03-04T13:25:02.770Z,6.60
2023-03-04T13:27:46.532Z,6.80
2023-03-04T13:30:32.998Z,6.20
2023-03-04T13:33:11.317Z,6.70
2023-03-04T13:35:54.920Z,7.60
2023-03-04T13:38:25.282Z,6.40
2023-03-04T13:41:14.900Z,6.80
2023-03-04T13:43:45.978Z,6.20
2023-03-04T13:46:20.936Z,8.70
2023-03-04T13:48:52.646Z,5.80
2023-03-04T13:51:44.339Z,6.40
2023-03-04T13:54:27.055Z,5.90
2023-03-04T13:57:01.548Z,5.70
2023-03-04T13:59:38.882Z,7.10
2023-03-04T14:02:22.799Z,5.90
2023-03-04T14:04:54.201Z,6.40
2023-03-04T14:07:37.334Z,5.80
2023-03-04T14:10:08.437Z,6.10
2023-03-04T14:12:41.128Z,6.50
2023-03-04T14:15:26.331Z,5.70
2023-03-04T14:17:58.025Z,6.30
2023-03-04T14:20:37.378Z,6.90
2023-03-04T14:23:23.382Z,6.10
2023-03-04T14:25:51.761Z,6.00
2023-03-04T14:28:21.345Z,6.20
2023-03-04T14:30:57.153Z,6.00
2023-03-04T14:33:30.918Z,6.80
2023-03-04T14:36:03.256Z,6.40
2023-03-04T14:38:38.413Z,6.40
2023-03-04T14:41:18.565Z,6.40
2023-03-04T14:43:57.312Z,7.20
2023-03-04T14:46:31.266Z,6.90
2023-03-04T14:49:00.449Z,5.90
2023-03-04T14:51:53.415Z,5.80
2023-03-04T14:54:37.128Z,6.40
2023-03-04T14:57:30.177Z,6.80
2023-03-04T15:00:25.184Z,6.30
2023-03-04T15:03:00.405Z,6.10
2023-03-04T15:05:34.295Z,6.60
2023-03-04T15:08:38.347Z,6.60
2023-03-04T15:11:08.432Z,6.90
2023-03-04T15:13:55.191Z,7.10
2023-03-04T15:16:26.957Z,8.00
2023-03-04T15:19:23.702Z,10.10
2023-03-04T15:22:04.855Z,9.20
2023-03-04T15:24:33.455Z,10.50
2023-03-04T15:27:04.699Z,10.00
2023-03-04T15:29:33.215Z,11.20
2023-03-04T15:32:02.156Z,9.70
2023-03-04T15:34:32.140Z,9.60
2023-03-04T15:37:01.217Z,10.70
2023-03-04T15:39:30.337Z,8.80
2023-03-04T15:41:58.690Z,9.20
2023-03-04T15:44:27.519Z,8.50
2023-03-04T15:46:56.296Z,8.00
2023-03-04T15:49:24.650Z,9.00
2023-03-04T15:51:53.859Z,7.60
2023-03-04T15:54:26.825Z,8.10
2023-03-04T15:56:57.831Z,7.90
2023-03-04T15:59:26.357Z,8.20
2023-03-04T16:01:54.988Z,8.20
2023-03-04T16:04:23.702Z,8.20
2023-03-04T16:06:51.918Z,8.30
2023-03-04T16:09:21.936Z,8.30
2023-03-04T16:11:51.289Z,8.10
2023-03-04T16:14:20.145Z,9.50
2023-03-04T16:16:50.910Z,9.30
2023-03-04T16:19:19.244Z,8.30
2023-03-04T16:21:48.292Z,9.50
2023-03-04T16:24:19.884Z,8.70
2023-03-04T16:26:48.341Z,8.20
2023-03-04T16:29:17.078Z,7.70
2023-03-04T16:31:46.424Z,8.60
2023-03-04T16:34:15.093Z,9.10
2023-03-04T16:36:45.016Z,9.50
2023-03-04T16:39:21.398Z,10.50
2023-03-04T16:41:51.513Z,11.00
2023-03-04T16:44:20.784Z,10.70
2023-03-04T16:46:49.266Z,10.80
2023-03-04T16:49:17.709Z,10.70
2023-03-04T16:51:50.682Z,10.60
2023-03-04T16:54:28.272Z,10.70
2023-03-04T16:57:00.298Z,10.40
2023-03-04T16:59:29.690Z,11.40
2023-03-04T17:01:58.705Z,10.40
2023-03-04T17:04:27.378Z,9.90
2023-03-04T17:06:55.632Z,10.60
2023-03-04T17:09:24.594Z,13.20
2023-03-04T17:11:53.925Z,9.90
2023-03-04T17:14:23.114Z,11.10
2023-03-04T17:16:51.178Z,11.30
2023-03-04T17:19:19.500Z,13.70
2023-03-04T17:21:47.603Z,11.30
2023-03-04T17:24:15.855Z,14.40
2023-03-04T17:26:44.110Z,11.80
2023-03-04T17:29:12.274Z,12.10
2023-03-04T17:31:40.678Z,11.50
2023-03-04T17:34:09.257Z,10.30
2023-03-04T17:36:37.359Z,11.10
2023-03-04T17:39:07.275Z,13.10
2023-03-04T17:41:36.311Z,11.10
2023-03-04T17:44:06.088Z,11.60
2023-03-04T17:46:34.406Z,11.30
2023-03-04T17:49:02.829Z,11.80
2023-03-04T17:51:39.268Z,12.90
2023-03-04T17:54:08.712Z,14.00
2023-03-04T17:56:39.607Z,14.80
2023-03-04T17:59:12.378Z,14.50
2023-03-04T18:01:40.511Z,14.30
2023-03-04T18:04:08.657Z,14.90
2023-03-04T18:06:37.143Z,14.60
2023-03-04T18:09:06.109Z,15.20
2023-03-04T18:11:38.317Z,17.00
2023-03-04T18:14:06.597Z,17.10
2023-03-04T18:16:35.238Z,17.40
2023-03-04T18:19:04.868Z,18.50
2023-03-04T18:21:33.015Z,17.60
2023-03-04T18:24:02.211Z,17.20
2023-03-04T18:26:30.931Z,16.60
2023-03-04T18:28:58.988Z,14.40
2023-03-04T18:31:32.557Z,16.20
2023-03-04T18:34:02.170Z,16.10
2023-03-04T18:36:30.786Z,17.00
2023-03-04T18:38:59.720Z,18.50
2023-03-04T18:41:28.432Z,19.50
2023-03-04T18:43:56.598Z,20.50
2023-03-04T18:46:44.453Z,19.30
2023-03-04T18:49:14.816Z,17.90
2023-03-04T18:51:43.082Z,17.40
2023-03-04T18:54:11.364Z,15.40
2023-03-04T18:56:55.846Z,16.90
2023-03-04T18:59:31.780Z,16.30
2023-03-04T19:02:05.317Z,15.80
2023-03-04T19:04:33.646Z,16.10
2023-03-04T19:07:01.856Z,14.70
2023-03-04T19:09:30.173Z,15.90
2023-03-04T19:11:58.632Z,15.20
2023-03-04T19:14:27.332Z,15.40
2023-03-04T19:16:55.946Z,15.70
2023-03-04T19:19:25.227Z,15.10
2023-03-04T19:21:53.786Z,15.10
2023-03-04T19:24:22.145Z,15.40
2023-03-04T19:26:50.845Z,15.40
2023-03-04T19:29:19.999Z,16.80
2023-03-04T19:31:48.079Z,15.90
2023-03-04T19:34:16.432Z,15.10
2023-03-04T19:36:45.147Z,16.80
2023-03-04T19:39:15.756Z,15.80
2023-03-04T19:41:44.530Z,16.30
2023-03-04T19:44:12.603Z,16.00
2023-03-04T19:46:41.082Z,17.20
2023-03-04T19:49:10.289Z,15.70
2023-03-04T19:51:38.804Z,16.00
2023-03-04T19:54:07.983Z,16.90
2023-03-04T19:56:36.191Z,17.70
2023-03-04T19:59:04.508Z,17.80
2023-03-04T20:01:35.655Z,16.90
2023-03-04T20:04:10.402Z,17.50
2023-03-04T20:06:42.026Z,16.60
2023-03-04T20:09:11.644Z,17.40
2023-03-04T20:11:56.237Z,18.30
2023-03-04T20:14:30.718Z,16.00
2023-03-04T20:17:02.820Z,20.20
2023-03-04T20:19:32.514Z,15.70
2023-03-04T20:22:01.758Z,17.50
2023-03-04T20:24:30.009Z,17.10
2023-03-04T20:26:58.971Z,18.00
2023-03-04T20:29:29.206Z,17.10
2023-03-04T20:31:58.268Z,16.20
2023-03-04T20:34:27.356Z,16.30
2023-03-04T20:36:55.430Z,17.30
2023-03-04T20:39:29.610Z,17.90
2023-03-04T20:41:59.568Z,18.10
2023-03-04T20:44:28.096Z,18.10
2023-03-04T20:46:56.327Z,18.00
2023-03-04T20:49:27.168Z,18.40
2023-03-04T20:52:06.609Z,18.70
2023-03-04T20:54:39.174Z,21.30
2023-03-04T20:57:08.370Z,20.30
2023-03-04T20:59:38.072Z,19.30
2023-03-04T21:02:08.796Z,19.90
2023-03-04T21:04:36.796Z,19.00
2023-03-04T21:07:04.722Z,17.60
2023-03-04T21:09:33.408Z,17.80
2023-03-04T21:12:01.792Z,17.80
2023-03-04T21:14:32.657Z,15.70
2023-03-04T21:17:03.703Z,18.30
2023-03-04T21:19:36.246Z,18.40
2023-03-04T21:22:04.511Z,17.70
2023-03-04T21:24:35.002Z,17.70
2023-03-04T21:27:04.744Z,17.90
2023-03-04T21:29:32.945Z,18.00
2023-03-04T21:32:22.400Z,18.40
2023-03-04T21:34:54.606Z,19.90
2023-03-04T21:37:25.149Z,20.50
2023-03-04T21:39:54.591Z,20.40
2023-03-04T21:42:22.891Z,21.40
2023-03-04T21:44:52.045Z,20.60
2023-03-04T21:47:21.719Z,20.40
2023-03-04T21:49:50.315Z,20.20
2023-03-04T21:52:20.372Z,20.80
2023-03-04T21:54:48.926Z,19.70
2023-03-04T21:57:17.606Z,22.40
2023-03-04T21:59:45.675Z,23.50
2023-03-04T22:02:20.354Z,22.20
2023-03-04T22:04:48.815Z,21.50
2023-03-04T22:07:17.021Z,21.50
2023-03-04T22:09:45.199Z,19.30
2023-03-04T22:12:15.858Z,17.30
2023-03-04T22:14:44.506Z,19.10
2023-03-04T22:17:12.841Z,18.60
2023-03-04T22:19:40.954Z,18.10
2023-03-04T22:22:09.191Z,18.00
2023-03-04T22:24:37.343Z,18.50
2023-03-04T22:27:05.539Z,18.40
2023-03-04T22:29:33.615Z,17.70
2023-03-04T22:32:02.415Z,18.60
2023-03-04T22:34:30.591Z,20.80
2023-03-04T22:36:58.810Z,22.30
2023-03-04T22:39:26.925Z,21.60
2023-03-04T22:41:55.502Z,20.50
2023-03-04T22:44:23.869Z,23.50
2023-03-04T22:46:52.475Z,23.60
2023-03-04T22:49:20.930Z,23.50
2023-03-04T22:51:49.477Z,21.30
2023-03-04T22:54:19.213Z,23.00
2023-03-04T22:56:47.727Z,24.10
2023-03-04T22:59:16.433Z,22.20
2023-03-04T23:01:44.784Z,23.20
2023-03-04T23:04:13.014Z,22.70
2023-03-04T23:06:41.142Z,23.60
2023-03-04T23:09:09.288Z,23.30
2023-03-04T23:11:39.074Z,24.30
2023-03-04T23:14:09.249Z,29.90
2023-03-04T23:16:42.693Z,26.80
2023-03-04T23:19:16.804Z,32.10
2023-03-04T23:21:45.226Z,29.90
2023-03-04T23:24:14.704Z,29.30
2023-03-04T23:26:43.696Z,28.60
2023-03-04T23:29:15.400Z,26.00
2023-03-04T23:31:44.614Z,27.30
2023-03-04T23:34:13.648Z,29.30
2023-03-04T23:36:42.247Z,28.80
2023-03-04T23:39:12.414Z,29.40
2023-03-04T23:41:40.803Z,30.10
2023-03-04T23:44:11.068Z,31.20
2023-03-04T23:46:40.128Z,29.00
2023-03-04T23:49:11.529Z,29.60
2023-03-04T23:51:41.145Z,27.50
2023-03-04T23:54:09.588Z,28.40
2023-03-04T23:56:38.460Z,27.80
2023-03-04T23:59:08.003Z,26.00
